JST518 YMLT-YMAV
Flight info
| Callsign | JST518 |
|---|---|
| Flight time | 0h 46m |
| Altitude | 34000 |
| Route | IRSOM DCT DIPLO DCT TAITE DCT ML |
| Aircraft | A321/M-SDE3FGHIRWY/LB1 |
Departure
| Time | 2026-05-07 03:28 |
|---|---|
| Airport | Launceston Airport (YMLT) |
Arrival
| Time | 2026-05-07 04:15 |
|---|---|
| Airport | Melbourne Avalon International Airport (YMAV) |
| Time | Latitude | Longitude | Altitude | Speed | Heading |
|---|---|---|---|---|---|
| 2026-05-07 03:15 | -41.54316 | 147.20682 | 584 ft | 0 kts | 296° |
| 2026-05-07 03:20 | -41.54317 | 147.20685 | 583 ft | 3 kts | 296° |
| 2026-05-07 03:20 | -41.54327 | 147.20713 | 583 ft | 3 kts | 297° |
| 2026-05-07 03:21 | -41.54338 | 147.20741 | 584 ft | 3 kts | 290° |
| 2026-05-07 03:21 | -41.54342 | 147.20766 | 584 ft | 3 kts | 240° |
| 2026-05-07 03:21 | -41.54351 | 147.20776 | 584 ft | 3 kts | 154° |
| 2026-05-07 03:21 | -41.54352 | 147.20777 | 584 ft | 0 kts | 146° |
| 2026-05-07 03:23 | -41.54353 | 147.20777 | 584 ft | 1 kts | 146° |
| 2026-05-07 03:23 | -41.54359 | 147.20782 | 584 ft | 2 kts | 146° |
| 2026-05-07 03:24 | -41.54382 | 147.20803 | 584 ft | 6 kts | 146° |
| 2026-05-07 03:24 | -41.54424 | 147.20842 | 584 ft | 9 kts | 148° |
| 2026-05-07 03:24 | -41.54476 | 147.20885 | 587 ft | 8 kts | 148° |
| 2026-05-07 03:24 | -41.54515 | 147.20918 | 590 ft | 6 kts | 148° |
| 2026-05-07 03:25 | -41.54556 | 147.20952 | 590 ft | 8 kts | 148° |
| 2026-05-07 03:25 | -41.54618 | 147.21005 | 589 ft | 13 kts | 148° |
| 2026-05-07 03:25 | -41.54695 | 147.21070 | 588 ft | 10 kts | 147° |
| 2026-05-07 03:25 | -41.54725 | 147.21096 | 588 ft | 0 kts | 147° |
| 2026-05-07 03:26 | -41.54762 | 147.21128 | 587 ft | 12 kts | 147° |
| 2026-05-07 03:26 | -41.54842 | 147.21196 | 584 ft | 16 kts | 147° |
| 2026-05-07 03:26 | -41.54938 | 147.21279 | 584 ft | 17 kts | 147° |
| 2026-05-07 03:26 | -41.55041 | 147.21366 | 583 ft | 18 kts | 147° |
| 2026-05-07 03:27 | -41.55129 | 147.21440 | 585 ft | 13 kts | 148° |
| 2026-05-07 03:27 | -41.55200 | 147.21503 | 587 ft | 12 kts | 141° |
| 2026-05-07 03:27 | -41.55228 | 147.21601 | 589 ft | 11 kts | 84° |
| 2026-05-07 03:27 | -41.55185 | 147.21670 | 591 ft | 9 kts | 5° |
| 2026-05-07 03:28 | -41.55092 | 147.21607 | 592 ft | 36 kts | 327° |
| 2026-05-07 03:28 | -41.54652 | 147.21226 | 593 ft | 111 kts | 327° |
| 2026-05-07 03:28 | -41.53860 | 147.20519 | 793 ft | 148 kts | 322° |
| 2026-05-07 03:28 | -41.53028 | 147.19764 | 1609 ft | 143 kts | 321° |
| 2026-05-07 03:29 | -41.52319 | 147.18869 | 2326 ft | 141 kts | 299° |
| 2026-05-07 03:29 | -41.52003 | 147.17557 | 2706 ft | 163 kts | 278° |
| 2026-05-07 03:29 | -41.51741 | 147.15925 | 2987 ft | 196 kts | 285° |
| 2026-05-07 03:29 | -41.51084 | 147.14241 | 3611 ft | 213 kts | 298° |
| 2026-05-07 03:30 | -41.50274 | 147.12510 | 4154 ft | 234 kts | 300° |
| 2026-05-07 03:30 | -41.49355 | 147.10601 | 4863 ft | 253 kts | 300° |
| 2026-05-07 03:30 | -41.48382 | 147.08594 | 5897 ft | 261 kts | 299° |
| 2026-05-07 03:30 | -41.47390 | 147.06544 | 7012 ft | 266 kts | 298° |
| 2026-05-07 03:31 | -41.46382 | 147.04449 | 8100 ft | 270 kts | 299° |
| 2026-05-07 03:31 | -41.45361 | 147.02320 | 9188 ft | 275 kts | 299° |
| 2026-05-07 03:31 | -41.44326 | 147.00158 | 10182 ft | 279 kts | 299° |
| 2026-05-07 03:31 | -41.43244 | 146.97893 | 10494 ft | 301 kts | 298° |
| 2026-05-07 03:32 | -41.42075 | 146.95448 | 10693 ft | 324 kts | 298° |
| 2026-05-07 03:32 | -41.40844 | 146.92877 | 11174 ft | 335 kts | 298° |
| 2026-05-07 03:32 | -41.39573 | 146.90231 | 11788 ft | 342 kts | 297° |
| 2026-05-07 03:32 | -41.38285 | 146.87543 | 12367 ft | 348 kts | 295° |
| 2026-05-07 03:33 | -41.36973 | 146.84794 | 12978 ft | 355 kts | 295° |
| 2026-05-07 03:33 | -41.35639 | 146.81997 | 13612 ft | 360 kts | 294° |
| 2026-05-07 03:33 | -41.34284 | 146.79166 | 14201 ft | 365 kts | 294° |
| 2026-05-07 03:33 | -41.32906 | 146.76307 | 14776 ft | 369 kts | 294° |
| 2026-05-07 03:34 | -41.31509 | 146.73416 | 15370 ft | 374 kts | 294° |
| 2026-05-07 03:34 | -41.30097 | 146.70495 | 15964 ft | 377 kts | 293° |
| 2026-05-07 03:34 | -41.28671 | 146.67543 | 16570 ft | 381 kts | 293° |
| 2026-05-07 03:34 | -41.27232 | 146.64560 | 17172 ft | 385 kts | 293° |
| 2026-05-07 03:35 | -41.25781 | 146.61550 | 17786 ft | 388 kts | 293° |
| 2026-05-07 03:35 | -41.24322 | 146.58521 | 18393 ft | 391 kts | 293° |
| 2026-05-07 03:35 | -41.22847 | 146.55465 | 18906 ft | 395 kts | 293° |
| 2026-05-07 03:35 | -41.21354 | 146.52383 | 19432 ft | 398 kts | 293° |
| 2026-05-07 03:36 | -41.19853 | 146.49284 | 19944 ft | 401 kts | 293° |
| 2026-05-07 03:36 | -41.18204 | 146.46233 | 20467 ft | 414 kts | 301° |
| 2026-05-07 03:36 | -41.16156 | 146.43531 | 20967 ft | 429 kts | 312° |
| 2026-05-07 03:36 | -41.13668 | 146.41238 | 21442 ft | 444 kts | 323° |
| 2026-05-07 03:37 | -41.10871 | 146.39395 | 21911 ft | 451 kts | 327° |
| 2026-05-07 03:37 | -41.08034 | 146.37579 | 22422 ft | 454 kts | 327° |
| 2026-05-07 03:37 | -41.05183 | 146.35731 | 22907 ft | 458 kts | 327° |
| 2026-05-07 03:37 | -41.02318 | 146.33857 | 23394 ft | 461 kts | 327° |
| 2026-05-07 03:38 | -40.99435 | 146.31963 | 23824 ft | 464 kts | 327° |
| 2026-05-07 03:38 | -40.96533 | 146.30059 | 24209 ft | 467 kts | 327° |
| 2026-05-07 03:38 | -40.93610 | 146.28153 | 24585 ft | 470 kts | 327° |
| 2026-05-07 03:38 | -40.90675 | 146.26254 | 25043 ft | 470 kts | 327° |
| 2026-05-07 03:39 | -40.87729 | 146.24353 | 25419 ft | 473 kts | 327° |
| 2026-05-07 03:39 | -40.84765 | 146.22431 | 25769 ft | 476 kts | 327° |
| 2026-05-07 03:39 | -40.81789 | 146.20502 | 26128 ft | 479 kts | 327° |
| 2026-05-07 03:39 | -40.78789 | 146.18564 | 26504 ft | 481 kts | 327° |
| 2026-05-07 03:40 | -40.75773 | 146.16622 | 26878 ft | 483 kts | 328° |
| 2026-05-07 03:40 | -40.72741 | 146.14678 | 27242 ft | 485 kts | 327° |
| 2026-05-07 03:40 | -40.69706 | 146.12729 | 27670 ft | 486 kts | 327° |
| 2026-05-07 03:40 | -40.66663 | 146.10769 | 28043 ft | 488 kts | 327° |
| 2026-05-07 03:41 | -40.63607 | 146.08799 | 28388 ft | 491 kts | 327° |
| 2026-05-07 03:41 | -40.60527 | 146.06813 | 28660 ft | 495 kts | 328° |
| 2026-05-07 03:41 | -40.57425 | 146.04816 | 28982 ft | 498 kts | 328° |
| 2026-05-07 03:41 | -40.54304 | 146.02816 | 29310 ft | 500 kts | 328° |
| 2026-05-07 03:42 | -40.51171 | 146.00815 | 29678 ft | 501 kts | 328° |
| 2026-05-07 03:42 | -40.48031 | 145.98815 | 30036 ft | 502 kts | 328° |
| 2026-05-07 03:42 | -40.44880 | 145.96806 | 30345 ft | 504 kts | 328° |
| 2026-05-07 03:42 | -40.41717 | 145.94791 | 30627 ft | 506 kts | 328° |
| 2026-05-07 03:43 | -40.38542 | 145.92765 | 30892 ft | 509 kts | 328° |
| 2026-05-07 03:43 | -40.35348 | 145.90721 | 31116 ft | 512 kts | 328° |
| 2026-05-07 03:43 | -40.32145 | 145.88669 | 31389 ft | 514 kts | 328° |
| 2026-05-07 03:43 | -40.28932 | 145.86617 | 31801 ft | 513 kts | 328° |
| 2026-05-07 03:44 | -40.25724 | 145.84576 | 32190 ft | 512 kts | 328° |
| 2026-05-07 03:44 | -40.22518 | 145.82550 | 32587 ft | 511 kts | 328° |
| 2026-05-07 03:44 | -40.19318 | 145.80531 | 32976 ft | 510 kts | 328° |
| 2026-05-07 03:44 | -40.16127 | 145.78512 | 33372 ft | 509 kts | 328° |
| 2026-05-07 03:45 | -40.12940 | 145.76498 | 33723 ft | 509 kts | 329° |
| 2026-05-07 03:45 | -40.09794 | 145.74509 | 34046 ft | 510 kts | 329° |
| 2026-05-07 03:45 | -40.06608 | 145.72496 | 34137 ft | 505 kts | 329° |
| 2026-05-07 03:46 | -40.00351 | 145.68521 | 34133 ft | 495 kts | 325° |
| 2026-05-07 03:46 | -39.94574 | 145.63784 | 34129 ft | 489 kts | 320° |
| 2026-05-07 03:47 | -39.88868 | 145.58969 | 34155 ft | 489 kts | 321° |
| 2026-05-07 03:47 | -39.83131 | 145.54163 | 34160 ft | 491 kts | 321° |
| 2026-05-07 03:48 | -39.77373 | 145.49371 | 34136 ft | 491 kts | 321° |
| 2026-05-07 03:48 | -39.71622 | 145.44579 | 34166 ft | 491 kts | 321° |
| 2026-05-07 03:49 | -39.65877 | 145.39789 | 34177 ft | 490 kts | 321° |
| 2026-05-07 03:49 | -39.60111 | 145.35000 | 33500 ft | 498 kts | 321° |
| 2026-05-07 03:49 | -39.57187 | 145.32571 | 32903 ft | 497 kts | 321° |
| 2026-05-07 03:50 | -39.54292 | 145.30171 | 32364 ft | 494 kts | 321° |
| 2026-05-07 03:50 | -39.51402 | 145.27780 | 31820 ft | 492 kts | 321° |
| 2026-05-07 03:50 | -39.48527 | 145.25402 | 31277 ft | 489 kts | 320° |
| 2026-05-07 03:50 | -39.45664 | 145.23039 | 30751 ft | 487 kts | 320° |
| 2026-05-07 03:51 | -39.42814 | 145.20694 | 30263 ft | 482 kts | 320° |
| 2026-05-07 03:51 | -39.40001 | 145.18385 | 29686 ft | 478 kts | 320° |
| 2026-05-07 03:51 | -39.37202 | 145.16087 | 29233 ft | 473 kts | 320° |
| 2026-05-07 03:51 | -39.34431 | 145.13811 | 28599 ft | 471 kts | 320° |
| 2026-05-07 03:52 | -39.31722 | 145.11585 | 28142 ft | 464 kts | 320° |
| 2026-05-07 03:52 | -39.29013 | 145.09360 | 27669 ft | 459 kts | 320° |
| 2026-05-07 03:52 | -39.26329 | 145.07152 | 27196 ft | 455 kts | 320° |
| 2026-05-07 03:52 | -39.23668 | 145.04964 | 26745 ft | 452 kts | 320° |
| 2026-05-07 03:53 | -39.21032 | 145.02799 | 26296 ft | 449 kts | 319° |
| 2026-05-07 03:53 | -39.18406 | 145.00643 | 25787 ft | 446 kts | 319° |
| 2026-05-07 03:53 | -39.15796 | 144.98506 | 25362 ft | 443 kts | 319° |
| 2026-05-07 03:53 | -39.13193 | 144.96380 | 24880 ft | 442 kts | 319° |
| 2026-05-07 03:54 | -39.10594 | 144.94266 | 24399 ft | 441 kts | 319° |
| 2026-05-07 03:54 | -39.08011 | 144.92165 | 23970 ft | 439 kts | 319° |
| 2026-05-07 03:54 | -39.05438 | 144.90064 | 23594 ft | 435 kts | 319° |
| 2026-05-07 03:54 | -39.02893 | 144.87991 | 23117 ft | 432 kts | 319° |
| 2026-05-07 03:55 | -39.00365 | 144.85931 | 22626 ft | 430 kts | 319° |
| 2026-05-07 03:55 | -38.97845 | 144.83883 | 22150 ft | 427 kts | 319° |
| 2026-05-07 03:55 | -38.95337 | 144.81849 | 21683 ft | 425 kts | 320° |
| 2026-05-07 03:55 | -38.92845 | 144.79826 | 21207 ft | 422 kts | 320° |
| 2026-05-07 03:56 | -38.90369 | 144.77815 | 20738 ft | 420 kts | 320° |
| 2026-05-07 03:56 | -38.87914 | 144.75829 | 20094 ft | 415 kts | 320° |
| 2026-05-07 03:56 | -38.85486 | 144.73865 | 19415 ft | 409 kts | 320° |
| 2026-05-07 03:56 | -38.83102 | 144.71941 | 18894 ft | 400 kts | 320° |
| 2026-05-07 03:57 | -38.80754 | 144.70051 | 18408 ft | 399 kts | 320° |
| 2026-05-07 03:57 | -38.78405 | 144.68152 | 17907 ft | 397 kts | 320° |
| 2026-05-07 03:57 | -38.76075 | 144.66269 | 17434 ft | 394 kts | 320° |
| 2026-05-07 03:57 | -38.73793 | 144.64425 | 16977 ft | 392 kts | 320° |
| 2026-05-07 03:58 | -38.71468 | 144.62549 | 16509 ft | 389 kts | 320° |
| 2026-05-07 03:58 | -38.69212 | 144.60734 | 16040 ft | 387 kts | 320° |
| 2026-05-07 03:58 | -38.66938 | 144.58905 | 15576 ft | 385 kts | 320° |
| 2026-05-07 03:58 | -38.64677 | 144.57088 | 15119 ft | 383 kts | 320° |
| 2026-05-07 03:59 | -38.62429 | 144.55281 | 14662 ft | 381 kts | 320° |
| 2026-05-07 03:59 | -38.60189 | 144.53484 | 14214 ft | 379 kts | 320° |
| 2026-05-07 03:59 | -38.57959 | 144.51698 | 13720 ft | 377 kts | 320° |
| 2026-05-07 03:59 | -38.55754 | 144.49937 | 13317 ft | 372 kts | 321° |
| 2026-05-07 04:00 | -38.53499 | 144.48303 | 12833 ft | 375 kts | 331° |
| 2026-05-07 04:00 | -38.50981 | 144.47384 | 12399 ft | 379 kts | 349° |
| 2026-05-07 04:00 | -38.49198 | 144.47237 | 12100 ft | 379 kts | 356° |
| 2026-05-07 04:00 | -38.46611 | 144.47163 | 11707 ft | 375 kts | 356° |
| 2026-05-07 04:01 | -38.44017 | 144.47093 | 11421 ft | 368 kts | 356° |
| 2026-05-07 04:01 | -38.41508 | 144.47027 | 11284 ft | 355 kts | 356° |
| 2026-05-07 04:01 | -38.39064 | 144.46961 | 10802 ft | 341 kts | 356° |
| 2026-05-07 04:01 | -38.36748 | 144.46895 | 10155 ft | 334 kts | 356° |
| 2026-05-07 04:02 | -38.34447 | 144.46823 | 9420 ft | 327 kts | 356° |
| 2026-05-07 04:02 | -38.32205 | 144.46749 | 8776 ft | 318 kts | 355° |
| 2026-05-07 04:02 | -38.30040 | 144.46679 | 8408 ft | 300 kts | 355° |
| 2026-05-07 04:02 | -38.28022 | 144.46619 | 8142 ft | 282 kts | 355° |
| 2026-05-07 04:03 | -38.26061 | 144.46556 | 7812 ft | 283 kts | 354° |
| 2026-05-07 04:03 | -38.24096 | 144.46491 | 7470 ft | 281 kts | 354° |
| 2026-05-07 04:03 | -38.22153 | 144.46428 | 7125 ft | 278 kts | 354° |
| 2026-05-07 04:03 | -38.20226 | 144.46365 | 6778 ft | 276 kts | 354° |
| 2026-05-07 04:04 | -38.18317 | 144.46304 | 6413 ft | 273 kts | 354° |
| 2026-05-07 04:04 | -38.16430 | 144.46245 | 6077 ft | 269 kts | 354° |
| 2026-05-07 04:04 | -38.14567 | 144.46188 | 5745 ft | 267 kts | 354° |
| 2026-05-07 04:04 | -38.12724 | 144.46134 | 5408 ft | 262 kts | 354° |
| 2026-05-07 04:05 | -38.10916 | 144.46081 | 5090 ft | 258 kts | 354° |
| 2026-05-07 04:05 | -38.09133 | 144.46027 | 4751 ft | 255 kts | 354° |
| 2026-05-07 04:05 | -38.07379 | 144.45973 | 4435 ft | 250 kts | 354° |
| 2026-05-07 04:05 | -38.05648 | 144.46081 | 4121 ft | 250 kts | 6° |
| 2026-05-07 04:06 | -38.03981 | 144.46687 | 3908 ft | 251 kts | 21° |
| 2026-05-07 04:06 | -38.02430 | 144.47757 | 3851 ft | 255 kts | 30° |
| 2026-05-07 04:06 | -38.00910 | 144.48921 | 3789 ft | 255 kts | 29° |
| 2026-05-07 04:06 | -37.99403 | 144.50068 | 3759 ft | 248 kts | 29° |
| 2026-05-07 04:07 | -37.97945 | 144.51175 | 3686 ft | 241 kts | 29° |
| 2026-05-07 04:07 | -37.96509 | 144.52259 | 3650 ft | 240 kts | 29° |
| 2026-05-07 04:07 | -37.95074 | 144.53341 | 3595 ft | 240 kts | 29° |
| 2026-05-07 04:07 | -37.93640 | 144.54425 | 3539 ft | 240 kts | 29° |
| 2026-05-07 04:08 | -37.92210 | 144.55508 | 3494 ft | 240 kts | 29° |
| 2026-05-07 04:08 | -37.90778 | 144.56591 | 3427 ft | 239 kts | 29° |
| 2026-05-07 04:08 | -37.89336 | 144.57646 | 3371 ft | 239 kts | 21° |
| 2026-05-07 04:08 | -37.87753 | 144.58069 | 3315 ft | 230 kts | 352° |
| 2026-05-07 04:09 | -37.86267 | 144.57615 | 3269 ft | 218 kts | 325° |
| 2026-05-07 04:09 | -37.85096 | 144.56477 | 3220 ft | 205 kts | 302° |
| 2026-05-07 04:09 | -37.84413 | 144.54954 | 3132 ft | 195 kts | 280° |
| 2026-05-07 04:09 | -37.84269 | 144.53322 | 3046 ft | 187 kts | 259° |
| 2026-05-07 04:10 | -37.84625 | 144.51781 | 3022 ft | 182 kts | 239° |
| 2026-05-07 04:10 | -37.85402 | 144.50539 | 3023 ft | 180 kts | 220° |
| 2026-05-07 04:10 | -37.86483 | 144.49752 | 3005 ft | 182 kts | 201° |
| 2026-05-07 04:10 | -37.87748 | 144.49455 | 2978 ft | 188 kts | 192° |
| 2026-05-07 04:11 | -37.89034 | 144.49243 | 2823 ft | 181 kts | 192° |
| 2026-05-07 04:11 | -37.90237 | 144.49045 | 2586 ft | 168 kts | 192° |
| 2026-05-07 04:11 | -37.91360 | 144.48857 | 2361 ft | 157 kts | 193° |
| 2026-05-07 04:11 | -37.92410 | 144.48681 | 2147 ft | 148 kts | 193° |
| 2026-05-07 04:12 | -37.93398 | 144.48515 | 1956 ft | 138 kts | 195° |
| 2026-05-07 04:12 | -37.94354 | 144.48353 | 1773 ft | 138 kts | 195° |
| 2026-05-07 04:12 | -37.95308 | 144.48192 | 1571 ft | 137 kts | 194° |
| 2026-05-07 04:12 | -37.96252 | 144.48033 | 1396 ft | 135 kts | 194° |
| 2026-05-07 04:13 | -37.97191 | 144.47875 | 1173 ft | 135 kts | 195° |
| 2026-05-07 04:13 | -37.98123 | 144.47724 | 993 ft | 136 kts | 193° |
| 2026-05-07 04:13 | -37.99059 | 144.47591 | 842 ft | 135 kts | 194° |
| 2026-05-07 04:13 | -37.99993 | 144.47406 | 627 ft | 133 kts | 197° |
| 2026-05-07 04:14 | -38.00910 | 144.47272 | 465 ft | 133 kts | 195° |
| 2026-05-07 04:14 | -38.01821 | 144.47092 | 301 ft | 132 kts | 196° |
| 2026-05-07 04:14 | -38.02740 | 144.46944 | 91 ft | 134 kts | 196° |
| 2026-05-07 04:14 | -38.03574 | 144.46789 | 35 ft | 102 kts | 187° |
| 2026-05-07 04:15 | -38.04152 | 144.46698 | 32 ft | 68 kts | 187° |
| 2026-05-07 04:15 | -38.04453 | 144.46646 | 35 ft | 31 kts | 188° |
| 2026-05-07 04:15 | -38.04613 | 144.46642 | 34 ft | 20 kts | 143° |
| 2026-05-07 04:15 | -38.04644 | 144.46786 | 35 ft | 15 kts | 88° |
| 2026-05-07 04:16 | -38.04561 | 144.46848 | 33 ft | 16 kts | 7° |
| 2026-05-07 04:16 | -38.04444 | 144.46866 | 34 ft | 18 kts | 8° |
| 2026-05-07 04:16 | -38.04318 | 144.46889 | 34 ft | 19 kts | 8° |
| 2026-05-07 04:16 | -38.04183 | 144.46908 | 33 ft | 19 kts | 6° |
| 2026-05-07 04:17 | -38.04065 | 144.46930 | 33 ft | 18 kts | 8° |
| 2026-05-07 04:17 | -38.03940 | 144.46948 | 33 ft | 17 kts | 7° |
| 2026-05-07 04:17 | -38.03825 | 144.46970 | 33 ft | 17 kts | 8° |
| 2026-05-07 04:17 | -38.03700 | 144.46990 | 34 ft | 19 kts | 6° |
| 2026-05-07 04:18 | -38.03576 | 144.47014 | 34 ft | 18 kts | 9° |
| 2026-05-07 04:18 | -38.03455 | 144.47034 | 32 ft | 15 kts | 5° |
| 2026-05-07 04:18 | -38.03360 | 144.47050 | 33 ft | 14 kts | 13° |
| 2026-05-07 04:18 | -38.03268 | 144.47112 | 32 ft | 16 kts | 42° |
| 2026-05-07 04:19 | -38.03195 | 144.47227 | 33 ft | 18 kts | 52° |
| 2026-05-07 04:19 | -38.03093 | 144.47318 | 32 ft | 19 kts | 16° |
| 2026-05-07 04:19 | -38.02989 | 144.47341 | 31 ft | 11 kts | 5° |
| 2026-05-07 04:19 | -38.02909 | 144.47351 | 32 ft | 12 kts | 7° |
| 2026-05-07 04:20 | -38.02837 | 144.47360 | 32 ft | 7 kts | 3° |
| 2026-05-07 04:20 | -38.02793 | 144.47360 | 32 ft | 2 kts | 2° |
| 2026-05-07 04:20 | -38.02773 | 144.47362 | 32 ft | 2 kts | 5° |
| 2026-05-07 04:21 | -38.02747 | 144.47366 | 32 ft | 3 kts | 7° |
| 2026-05-07 04:21 | -38.02734 | 144.47368 | 31 ft | 1 kts | 7° |
| 2026-05-07 04:21 | -38.02726 | 144.47369 | 32 ft | 0 kts | 7° |